sensor_id;sensor_type;location;lat;lon;timestamp;pressure;altitude;pressure_sealevel;temperature;humidity
50226;BME280;36113;50.742;6.432;2022-10-31T00:02:04;148145.47;;;12.88;100.00
50226;BME280;36113;50.742;6.432;2022-10-31T00:04:29;148139.19;;;12.86;100.00
50226;BME280;36113;50.742;6.432;2022-10-31T00:06:55;148169.34;;;12.98;100.00
50226;BME280;36113;50.742;6.432;2022-10-31T00:09:20;148159.28;;;12.94;100.00
50226;BME280;36113;50.742;6.432;2022-10-31T00:11:45;148148.00;;;12.89;100.00
50226;BME280;36113;50.742;6.432;2022-10-31T00:14:11;148171.81;;;12.99;100.00
50226;BME280;36113;50.742;6.432;2022-10-31T00:16:36;148142.97;;;12.87;100.00
50226;BME280;36113;50.742;6.432;2022-10-31T00:19:04;148199.44;;;13.10;100.00
50226;BME280;36113;50.742;6.432;2022-10-31T00:21:31;148232.09;;;13.24;100.00
50226;BME280;36113;50.742;6.432;2022-10-31T00:23:58;148274.78;;;13.41;100.00
50226;BME280;36113;50.742;6.432;2022-10-31T00:26:23;148307.44;;;13.55;100.00
50226;BME280;36113;50.742;6.432;2022-10-31T00:28:49;148311.16;;;13.56;100.00
50226;BME280;36113;50.742;6.432;2022-10-31T00:31:14;148342.56;;;13.69;100.00
50226;BME280;36113;50.742;6.432;2022-10-31T00:33:41;148340.03;;;13.68;100.00
50226;BME280;36113;50.742;6.432;2022-10-31T00:36:09;148346.34;;;13.71;100.00
50226;BME280;36113;50.742;6.432;2022-10-31T00:38:35;148343.81;;;13.69;100.00
50226;BME280;36113;50.742;6.432;2022-10-31T00:41:00;148299.91;;;13.52;100.00
50226;BME280;36113;50.742;6.432;2022-10-31T00:43:26;148335.03;;;13.66;100.00
50226;BME280;36113;50.742;6.432;2022-10-31T00:45:51;148341.31;;;13.68;100.00
50226;BME280;36113;50.742;6.432;2022-10-31T00:48:16;148311.16;;;13.56;100.00
50226;BME280;36113;50.742;6.432;2022-10-31T00:50:42;148286.06;;;13.46;100.00
50226;BME280;36113;50.742;6.432;2022-10-31T00:53:07;148281.03;;;13.44;100.00
50226;BME280;36113;50.742;6.432;2022-10-31T00:55:32;148264.72;;;13.37;100.00
50226;BME280;36113;50.742;6.432;2022-10-31T00:57:58;148286.06;;;13.46;100.00
50226;BME280;36113;50.742;6.432;2022-10-31T01:00:23;148271.03;;;13.40;100.00
50226;BME280;36113;50.742;6.432;2022-10-31T01:02:48;148243.34;;;13.28;100.00
50226;BME280;36113;50.742;6.432;2022-10-31T01:05:14;148217.00;;;13.18;100.00
50226;BME280;36113;50.742;6.432;2022-10-31T01:07:40;148222.00;;;13.20;100.00
50226;BME280;36113;50.742;6.432;2022-10-31T01:10:07;148206.97;;;13.13;100.00
50226;BME280;36113;50.742;6.432;2022-10-31T01:12:37;148225.78;;;13.21;100.00
50226;BME280;36113;50.742;6.432;2022-10-31T01:15:03;148224.53;;;13.21;100.00
50226;BME280;36113;50.742;6.432;2022-10-31T01:17:28;148203.22;;;13.12;100.00
50226;BME280;36113;50.742;6.432;2022-10-31T01:19:54;148193.16;;;13.08;100.00
50226;BME280;36113;50.742;6.432;2022-10-31T01:22:19;148096.53;;;12.68;100.00
50226;BME280;36113;50.742;6.432;2022-10-31T01:24:44;148183.13;;;13.04;100.00
50226;BME280;36113;50.742;6.432;2022-10-31T01:27:09;148169.34;;;12.98;100.00
50226;BME280;36113;50.742;6.432;2022-10-31T01:29:35;148114.09;;;12.75;100.00
50226;BME280;36113;50.742;6.432;2022-10-31T01:32:00;148142.97;;;12.87;100.00
50226;BME280;36113;50.742;6.432;2022-10-31T01:34:25;148117.88;;;12.77;100.00
50226;BME280;36113;50.742;6.432;2022-10-31T01:36:51;148062.69;;;12.54;100.00
50226;BME280;36113;50.742;6.432;2022-10-31T01:39:17;148070.22;;;12.57;100.00
50226;BME280;36113;50.742;6.432;2022-10-31T01:41:45;148104.06;;;12.71;100.00
50226;BME280;36113;50.742;6.432;2022-10-31T01:46:53;148100.31;;;12.70;100.00
50226;BME280;36113;50.742;6.432;2022-10-31T01:51:49;148087.75;;;12.65;100.00
50226;BME280;36113;50.742;6.432;2022-10-31T01:54:21;148038.88;;;12.45;100.00
50226;BME280;36113;50.742;6.432;2022-10-31T01:56:50;148046.38;;;12.48;100.00
50226;BME280;36113;50.742;6.432;2022-10-31T01:59:18;148033.81;;;12.43;100.00
50226;BME280;36113;50.742;6.432;2022-10-31T02:01:45;148027.56;;;12.40;100.00
50226;BME280;36113;50.742;6.432;2022-10-31T02:04:11;147949.81;;;12.08;100.00
50226;BME280;36113;50.742;6.432;2022-10-31T02:07:25;148017.50;;;12.36;100.00
50226;BME280;36113;50.742;6.432;2022-10-31T02:09:49;147958.56;;;12.12;100.00
50226;BME280;36113;50.742;6.432;2022-10-31T02:12:16;147979.94;;;12.21;100.00
50226;BME280;36113;50.742;6.432;2022-10-31T02:14:41;147942.31;;;12.05;100.00
50226;BME280;36113;50.742;6.432;2022-10-31T02:17:07;147984.94;;;12.23;100.00
50226;BME280;36113;50.742;6.432;2022-10-31T02:19:46;147983.66;;;12.22;100.00
50226;BME280;36113;50.742;6.432;2022-10-31T02:30:41;147979.94;;;12.21;100.00
50226;BME280;36113;50.742;6.432;2022-10-31T02:36:16;147927.25;;;11.99;100.00
50226;BME280;36113;50.742;6.432;2022-10-31T02:44:32;147951.09;;;12.09;100.00
50226;BME280;36113;50.742;6.432;2022-10-31T02:47:11;147952.31;;;12.09;100.00
50226;BME280;36113;50.742;6.432;2022-10-31T02:50:17;147936.03;;;12.03;100.00
50226;BME280;36113;50.742;6.432;2022-10-31T02:52:43;147928.50;;;11.99;100.00
50226;BME280;36113;50.742;6.432;2022-10-31T02:58:00;147909.69;;;11.92;100.00
50226;BME280;36113;50.742;6.432;2022-10-31T03:00:30;147854.50;;;11.69;100.00
50226;BME280;36113;50.742;6.432;2022-10-31T03:03:12;147890.81;;;11.84;100.00
50226;BME280;36113;50.742;6.432;2022-10-31T03:08:29;147869.53;;;11.75;100.00
50226;BME280;36113;50.742;6.432;2022-10-31T03:10:59;147843.22;;;11.64;100.00
50226;BME280;36113;50.742;6.432;2022-10-31T03:13:47;147814.38;;;11.53;100.00
50226;BME280;36113;50.742;6.432;2022-10-31T03:19:05;147805.59;;;11.49;100.00
50226;BME280;36113;50.742;6.432;2022-10-31T03:24:01;147810.59;;;11.51;100.00
50226;BME280;36113;50.742;6.432;2022-10-31T03:26:27;147801.84;;;11.48;100.00
50226;BME280;36113;50.742;6.432;2022-10-31T03:29:03;147751.69;;;11.27;100.00
50226;BME280;36113;50.742;6.432;2022-10-31T03:31:40;147793.06;;;11.44;100.00
50226;BME280;36113;50.742;6.432;2022-10-31T03:34:08;147766.75;;;11.33;100.00
50226;BME280;36113;50.742;6.432;2022-10-31T03:36:37;147766.75;;;11.33;100.00
50226;BME280;36113;50.742;6.432;2022-10-31T03:39:04;147808.13;;;11.50;100.00
50226;BME280;36113;50.742;6.432;2022-10-31T03:41:35;147844.44;;;11.65;100.00
50226;BME280;36113;50.742;6.432;2022-10-31T03:44:08;147850.72;;;11.68;100.00
50226;BME280;36113;50.742;6.432;2022-10-31T03:46:36;147813.13;;;11.52;100.00
50226;BME280;36113;50.742;6.432;2022-10-31T03:49:02;147823.13;;;11.56;100.00
50226;BME280;36113;50.742;6.432;2022-10-31T03:51:39;147803.06;;;11.48;100.00
50226;BME280;36113;50.742;6.432;2022-10-31T03:57:25;147765.47;;;11.33;100.00
50226;BME280;36113;50.742;6.432;2022-10-31T03:59:57;147764.22;;;11.32;100.00
50226;BME280;36113;50.742;6.432;2022-10-31T04:02:29;147804.34;;;11.49;100.00
50226;BME280;36113;50.742;6.432;2022-10-31T04:04:56;147791.81;;;11.43;100.00
50226;BME280;36113;50.742;6.432;2022-10-31T04:07:24;147761.75;;;11.31;100.00
50226;BME280;36113;50.742;6.432;2022-10-31T04:09:51;147763.00;;;11.32;100.00
50226;BME280;36113;50.742;6.432;2022-10-31T04:12:17;147756.72;;;11.29;100.00
50226;BME280;36113;50.742;6.432;2022-10-31T04:14:46;147751.69;;;11.27;100.00
50226;BME280;36113;50.742;6.432;2022-10-31T04:17:15;147761.75;;;11.31;100.00
50226;BME280;36113;50.742;6.432;2022-10-31T04:19:41;147729.16;;;11.18;100.00
50226;BME280;36113;50.742;6.432;2022-10-31T04:22:07;147691.56;;;11.02;100.00
50226;BME280;36113;50.742;6.432;2022-10-31T04:24:32;147736.69;;;11.21;100.00
50226;BME280;36113;50.742;6.432;2022-10-31T04:26:58;147680.28;;;10.98;100.00
50226;BME280;36113;50.742;6.432;2022-10-31T04:29:23;147755.47;;;11.29;100.00
50226;BME280;36113;50.742;6.432;2022-10-31T04:31:48;147727.88;;;11.17;100.00
50226;BME280;36113;50.742;6.432;2022-10-31T04:34:14;147732.94;;;11.19;100.00
50226;BME280;36113;50.742;6.432;2022-10-31T04:36:39;147699.09;;;11.05;100.00
50226;BME280;36113;50.742;6.432;2022-10-31T04:39:04;147778.00;;;11.38;100.00
50226;BME280;36113;50.742;6.432;2022-10-31T04:41:30;147734.16;;;11.20;100.00
50226;BME280;36113;50.742;6.432;2022-10-31T04:43:55;147780.53;;;11.39;100.00
50226;BME280;36113;50.742;6.432;2022-10-31T04:46:20;147752.94;;;11.27;100.00
50226;BME280;36113;50.742;6.432;2022-10-31T04:48:45;147745.47;;;11.24;100.00
50226;BME280;36113;50.742;6.432;2022-10-31T04:51:11;147783.06;;;11.40;100.00
50226;BME280;36113;50.742;6.432;2022-10-31T04:53:36;147796.84;;;11.45;100.00
50226;BME280;36113;50.742;6.432;2022-10-31T04:56:02;147778.00;;;11.38;100.00
50226;BME280;36113;50.742;6.432;2022-10-31T04:58:27;147719.09;;;11.14;100.00
50226;BME280;36113;50.742;6.432;2022-10-31T05:00:53;147759.22;;;11.30;100.00
50226;BME280;36113;50.742;6.432;2022-10-31T05:03:19;147739.16;;;11.22;100.00
50226;BME280;36113;50.742;6.432;2022-10-31T05:05:45;147760.47;;;11.31;100.00
50226;BME280;36113;50.742;6.432;2022-10-31T05:08:10;147725.41;;;11.16;100.00
50226;BME280;36113;50.742;6.432;2022-10-31T05:10:36;147751.69;;;11.27;100.00
50226;BME280;36113;50.742;6.432;2022-10-31T05:13:04;147737.94;;;11.21;100.00
50226;BME280;36113;50.742;6.432;2022-10-31T05:15:30;147707.88;;;11.09;100.00
50226;BME280;36113;50.742;6.432;2022-10-31T05:17:55;147652.75;;;10.86;100.00
50226;BME280;36113;50.742;6.432;2022-10-31T05:20:24;147681.53;;;10.98;100.00
50226;BME280;36113;50.742;6.432;2022-10-31T05:22:51;147647.69;;;10.84;100.00
50226;BME280;36113;50.742;6.432;2022-10-31T05:25:18;147606.34;;;10.67;100.00
50226;BME280;36113;50.742;6.432;2022-10-31T05:27:46;147685.28;;;11.00;100.00
50226;BME280;36113;50.742;6.432;2022-10-31T05:30:13;147647.69;;;10.84;100.00
50226;BME280;36113;50.742;6.432;2022-10-31T05:32:40;147702.81;;;11.07;100.00
50226;BME280;36113;50.742;6.432;2022-10-31T05:35:07;147711.63;;;11.11;100.00
50226;BME280;36113;50.742;6.432;2022-10-31T05:37:34;147717.88;;;11.13;100.00
50226;BME280;36113;50.742;6.432;2022-10-31T05:40:01;147690.28;;;11.02;100.00
50226;BME280;36113;50.742;6.432;2022-10-31T05:42:27;147784.31;;;11.40;100.00
50226;BME280;36113;50.742;6.432;2022-10-31T05:44:52;147809.38;;;11.51;100.00
50226;BME280;36113;50.742;6.432;2022-10-31T05:47:17;147829.44;;;11.59;100.00
50226;BME280;36113;50.742;6.432;2022-10-31T05:49:43;147843.22;;;11.64;100.00
50226;BME280;36113;50.742;6.432;2022-10-31T05:52:08;147854.50;;;11.69;100.00
50226;BME280;36113;50.742;6.432;2022-10-31T05:54:33;147883.34;;;11.81;100.00
50226;BME280;36113;50.742;6.432;2022-10-31T05:56:58;147890.81;;;11.84;100.00
50226;BME280;36113;50.742;6.432;2022-10-31T05:59:24;147908.41;;;11.91;100.00
50226;BME280;36113;50.742;6.432;2022-10-31T06:01:49;147923.47;;;11.97;100.00
50226;BME280;36113;50.742;6.432;2022-10-31T06:04:15;147934.78;;;12.02;100.00
50226;BME280;36113;50.742;6.432;2022-10-31T06:06:40;147907.19;;;11.91;100.00
50226;BME280;36113;50.742;6.432;2022-10-31T06:09:05;147872.03;;;11.76;100.00
50226;BME280;36113;50.742;6.432;2022-10-31T06:11:31;147962.34;;;12.13;100.00
50226;BME280;36113;50.742;6.432;2022-10-31T06:13:56;147952.31;;;12.09;100.00
50226;BME280;36113;50.742;6.432;2022-10-31T06:16:21;147962.34;;;12.13;100.00
50226;BME280;36113;50.742;6.432;2022-10-31T06:18:47;147914.72;;;11.94;100.00
50226;BME280;36113;50.742;6.432;2022-10-31T06:21:12;147944.78;;;12.06;100.00
50226;BME280;36113;50.742;6.432;2022-10-31T06:23:37;147948.56;;;12.08;100.00
50226;BME280;36113;50.742;6.432;2022-10-31T06:26:03;147912.19;;;11.93;100.00
50226;BME280;36113;50.742;6.432;2022-10-31T06:28:28;147951.09;;;12.09;100.00
50226;BME280;36113;50.742;6.432;2022-10-31T06:30:53;147946.03;;;12.07;100.00
50226;BME280;36113;50.742;6.432;2022-10-31T06:33:19;147939.78;;;12.04;100.00
50226;BME280;36113;50.742;6.432;2022-10-31T06:35:45;147956.09;;;12.11;100.00
50226;BME280;36113;50.742;6.432;2022-10-31T06:38:11;147954.84;;;12.10;100.00
50226;BME280;36113;50.742;6.432;2022-10-31T06:40:36;147952.31;;;12.09;100.00
50226;BME280;36113;50.742;6.432;2022-10-31T06:43:02;147939.78;;;12.04;100.00
50226;BME280;36113;50.742;6.432;2022-10-31T06:45:27;147910.94;;;11.92;100.00
50226;BME280;36113;50.742;6.432;2022-10-31T06:47:54;147864.50;;;11.73;100.00
50226;BME280;36113;50.742;6.432;2022-10-31T06:50:20;147938.56;;;12.04;100.00
50226;BME280;36113;50.742;6.432;2022-10-31T06:52:56;147903.38;;;11.89;100.00
50226;BME280;36113;50.742;6.432;2022-10-31T06:55:22;147962.34;;;12.13;100.00
50226;BME280;36113;50.742;6.432;2022-10-31T06:57:57;147976.16;;;12.19;100.00
50226;BME280;36113;50.742;6.432;2022-10-31T07:00:24;147987.41;;;12.24;100.00
50226;BME280;36113;50.742;6.432;2022-10-31T07:03:00;148006.25;;;12.31;100.00
50226;BME280;36113;50.742;6.432;2022-10-31T07:05:27;147983.66;;;12.22;100.00
50226;BME280;36113;50.742;6.432;2022-10-31T07:07:57;148001.25;;;12.29;100.00
50226;BME280;36113;50.742;6.432;2022-10-31T07:10:24;147946.03;;;12.07;100.00
50226;BME280;36113;50.742;6.432;2022-10-31T07:12:57;147969.88;;;12.16;100.00
50226;BME280;36113;50.742;6.432;2022-10-31T07:15:27;147963.63;;;12.14;100.00
50226;BME280;36113;50.742;6.432;2022-10-31T07:17:53;147971.13;;;12.17;100.00
50226;BME280;36113;50.742;6.432;2022-10-31T07:20:19;147974.88;;;12.18;100.00
50226;BME280;36113;50.742;6.432;2022-10-31T07:22:44;147903.38;;;11.89;100.00
50226;BME280;36113;50.742;6.432;2022-10-31T07:25:10;147981.19;;;12.21;100.00
50226;BME280;36113;50.742;6.432;2022-10-31T07:27:40;148033.81;;;12.43;100.00
50226;BME280;36113;50.742;6.432;2022-10-31T07:30:07;148056.44;;;12.52;100.00
50226;BME280;36113;50.742;6.432;2022-10-31T07:32:40;148082.75;;;12.63;100.00
50226;BME280;36113;50.742;6.432;2022-10-31T07:35:07;148091.53;;;12.66;100.00
50226;BME280;36113;50.742;6.432;2022-10-31T07:37:33;148107.84;;;12.73;100.00
50226;BME280;36113;50.742;6.432;2022-10-31T07:39:58;148115.38;;;12.76;100.00
50226;BME280;36113;50.742;6.432;2022-10-31T07:42:24;148140.47;;;12.86;100.00
50226;BME280;36113;50.742;6.432;2022-10-31T07:44:49;148161.81;;;12.95;100.00
50226;BME280;36113;50.742;6.432;2022-10-31T07:47:14;148146.72;;;12.89;100.00
50226;BME280;36113;50.742;6.432;2022-10-31T07:49:40;148136.72;;;12.85;100.00
50226;BME280;36113;50.742;6.432;2022-10-31T07:52:05;148183.13;;;13.04;100.00
50226;BME280;36113;50.742;6.432;2022-10-31T07:54:30;148189.38;;;13.06;100.00
50226;BME280;36113;50.742;6.432;2022-10-31T07:56:56;148174.34;;;13.00;100.00
50226;BME280;36113;50.742;6.432;2022-10-31T07:59:21;148205.69;;;13.13;100.00
50226;BME280;36113;50.742;6.432;2022-10-31T08:01:46;148188.13;;;13.06;100.00
50226;BME280;36113;50.742;6.432;2022-10-31T08:04:12;148154.25;;;12.92;100.00
50226;BME280;36113;50.742;6.432;2022-10-31T08:06:37;148235.81;;;13.25;100.00
50226;BME280;36113;50.742;6.432;2022-10-31T08:09:02;148245.88;;;13.29;100.00
50226;BME280;36113;50.742;6.432;2022-10-31T08:11:28;148255.94;;;13.34;100.00
50226;BME280;36113;50.742;6.432;2022-10-31T08:13:53;148264.72;;;13.37;100.00
50226;BME280;36113;50.742;6.432;2022-10-31T08:16:18;148244.63;;;13.29;100.00
50226;BME280;36113;50.742;6.432;2022-10-31T08:18:44;148281.03;;;13.44;100.00
50226;BME280;36113;50.742;6.432;2022-10-31T08:21:09;148255.94;;;13.34;100.00
50226;BME280;36113;50.742;6.432;2022-10-31T08:23:35;148282.34;;;13.44;100.00
50226;BME280;36113;50.742;6.432;2022-10-31T08:26:01;148328.78;;;13.63;100.00
50226;BME280;36113;50.742;6.432;2022-10-31T08:28:26;148309.91;;;13.56;100.00
50226;BME280;36113;50.742;6.432;2022-10-31T08:30:51;148363.91;;;13.78;100.00
50226;BME280;36113;50.742;6.432;2022-10-31T08:33:17;148336.25;;;13.66;100.00
50226;BME280;36113;50.742;6.432;2022-10-31T08:35:44;148380.22;;;13.84;100.00
50226;BME280;36113;50.742;6.432;2022-10-31T08:38:11;148358.91;;;13.76;100.00
50226;BME280;36113;50.742;6.432;2022-10-31T08:40:37;148404.09;;;13.94;100.00
50226;BME280;36113;50.742;6.432;2022-10-31T08:43:04;148432.94;;;14.06;100.00
50226;BME280;36113;50.742;6.432;2022-10-31T08:45:31;148435.47;;;14.07;100.00
50226;BME280;36113;50.742;6.432;2022-10-31T08:48:01;148445.50;;;14.11;100.00
50226;BME280;36113;50.742;6.432;2022-10-31T08:50:27;148459.34;;;14.17;100.00
50226;BME280;36113;50.742;6.432;2022-10-31T08:52:53;148444.25;;;14.11;100.00
50226;BME280;36113;50.742;6.432;2022-10-31T08:55:19;148466.84;;;14.20;100.00
50226;BME280;36113;50.742;6.432;2022-10-31T08:57:44;148470.63;;;14.21;100.00
50226;BME280;36113;50.742;6.432;2022-10-31T09:00:10;148513.34;;;14.39;100.00
50226;BME280;36113;50.742;6.432;2022-10-31T09:02:35;148497.03;;;14.32;100.00
50226;BME280;36113;50.742;6.432;2022-10-31T09:05:02;148488.22;;;14.29;100.00
50226;BME280;36113;50.742;6.432;2022-10-31T09:07:27;148500.78;;;14.34;100.00
50226;BME280;36113;50.742;6.432;2022-10-31T09:09:53;148502.03;;;14.34;100.00
50226;BME280;36113;50.742;6.432;2022-10-31T09:12:18;148543.50;;;14.51;100.00
50226;BME280;36113;50.742;6.432;2022-10-31T09:14:43;148534.69;;;14.48;100.00
50226;BME280;36113;50.742;6.432;2022-10-31T09:17:09;148523.38;;;14.43;100.00
50226;BME280;36113;50.742;6.432;2022-10-31T09:19:34;148543.50;;;14.51;100.00
50226;BME280;36113;50.742;6.432;2022-10-31T09:22:00;148576.16;;;14.65;100.00
50226;BME280;36113;50.742;6.432;2022-10-31T09:24:26;148665.41;;;15.01;100.00
50226;BME280;36113;50.742;6.432;2022-10-31T09:26:51;148688.00;;;15.10;100.00
50226;BME280;36113;50.742;6.432;2022-10-31T09:29:16;148738.25;;;15.31;100.00
50226;BME280;36113;50.742;6.432;2022-10-31T09:31:42;148793.56;;;15.53;100.00
50226;BME280;36113;50.742;6.432;2022-10-31T09:34:07;148833.81;;;15.70;100.00
50226;BME280;36113;50.742;6.432;2022-10-31T09:36:32;148819.94;;;15.64;100.00
50226;BME280;36113;50.742;6.432;2022-10-31T09:38:57;148859.00;;;15.80;100.00
50226;BME280;36113;50.742;6.432;2022-10-31T09:41:37;148940.69;;;16.13;100.00
50226;BME280;36113;50.742;6.432;2022-10-31T09:47:05;149037.53;;;16.53;100.00
50226;BME280;36113;50.742;6.432;2022-10-31T09:49:50;149099.19;;;16.78;100.00
50226;BME280;36113;50.742;6.432;2022-10-31T09:52:29;149095.41;;;16.77;100.00
50226;BME280;36113;50.742;6.432;2022-10-31T09:55:16;149149.56;;;16.99;100.00
50226;BME280;36113;50.742;6.432;2022-10-31T09:57:43;149079.06;;;16.70;100.00
50226;BME280;36113;50.742;6.432;2022-10-31T10:00:16;149168.41;;;17.06;100.00
50226;BME280;36113;50.742;6.432;2022-10-31T10:05:24;149111.78;;;16.83;100.00
50226;BME280;36113;50.742;6.432;2022-10-31T10:10:55;149221.28;;;17.28;100.00
50226;BME280;36113;50.742;6.432;2022-10-31T10:27:46;149260.28;;;17.44;100.00
50226;BME280;36113;50.742;6.432;2022-10-31T10:30:18;149293.03;;;17.57;100.00
50226;BME280;36113;50.742;6.432;2022-10-31T10:32:49;149269.09;;;17.48;100.00
50226;BME280;36113;50.742;6.432;2022-10-31T10:35:32;149315.66;;;17.67;100.00
50226;BME280;36113;50.742;6.432;2022-10-31T10:40:34;149289.25;;;17.56;100.00
50226;BME280;36113;50.742;6.432;2022-10-31T10:45:49;149352.19;;;17.81;100.00
50226;BME280;36113;50.742;6.432;2022-10-31T10:51:04;149293.03;;;17.57;100.00
50226;BME280;36113;50.742;6.432;2022-10-31T10:53:57;149350.94;;;17.81;100.00
50226;BME280;36113;50.742;6.432;2022-10-31T10:59:21;149390.00;;;17.97;100.00
50226;BME280;36113;50.742;6.432;2022-10-31T11:01:48;149406.38;;;18.04;100.00
50226;BME280;36113;50.742;6.432;2022-10-31T11:04:35;149366.06;;;17.87;100.00
50226;BME280;36113;50.742;6.432;2022-10-31T11:07:08;149429.03;;;18.13;100.00
50226;BME280;36113;50.742;6.432;2022-10-31T11:09:35;149393.78;;;17.98;100.00
50226;BME280;36113;50.742;6.432;2022-10-31T11:12:05;149441.63;;;18.18;100.00
50226;BME280;36113;50.742;6.432;2022-10-31T11:14:42;149452.97;;;18.23;100.00
50226;BME280;36113;50.742;6.432;2022-10-31T11:17:22;149446.63;;;18.20;100.00
50226;BME280;36113;50.742;6.432;2022-10-31T11:20:00;149451.66;;;18.22;100.00
50226;BME280;36113;50.742;6.432;2022-10-31T11:22:26;149480.63;;;18.34;100.00
50226;BME280;36113;50.742;6.432;2022-10-31T11:24:51;149484.41;;;18.35;100.00
50226;BME280;36113;50.742;6.432;2022-10-31T11:27:21;149490.75;;;18.38;100.00
50226;BME280;36113;50.742;6.432;2022-10-31T11:29:46;149470.59;;;18.30;100.00
50226;BME280;36113;50.742;6.432;2022-10-31T11:32:20;149460.53;;;18.26;100.00
50226;BME280;36113;50.742;6.432;2022-10-31T11:34:49;149439.06;;;18.17;100.00
50226;BME280;36113;50.742;6.432;2022-10-31T11:37:29;149411.41;;;18.06;100.00
50226;BME280;36113;50.742;6.432;2022-10-31T11:39:59;149391.25;;;17.97;100.00
50226;BME280;36113;50.742;6.432;2022-10-31T11:42:27;149382.44;;;17.94;100.00
50226;BME280;36113;50.742;6.432;2022-10-31T11:44:54;149376.16;;;17.91;100.00
50226;BME280;36113;50.742;6.432;2022-10-31T11:47:27;149371.09;;;17.89;100.00
50226;BME280;36113;50.742;6.432;2022-10-31T11:49:54;149334.56;;;17.74;100.00
50226;BME280;36113;50.742;6.432;2022-10-31T11:52:24;149354.69;;;17.83;100.00
50226;BME280;36113;50.742;6.432;2022-10-31T11:57:26;149335.81;;;17.75;100.00
50226;BME280;36113;50.742;6.432;2022-10-31T11:59:54;149303.06;;;17.61;100.00
50226;BME280;36113;50.742;6.432;2022-10-31T12:02:20;149282.94;;;17.53;100.00
50226;BME280;36113;50.742;6.432;2022-10-31T12:05:06;149284.22;;;17.54;100.00
50226;BME280;36113;50.742;6.432;2022-10-31T12:07:33;149280.44;;;17.52;100.00
50226;BME280;36113;50.742;6.432;2022-10-31T12:09:58;149231.34;;;17.32;100.00
50226;BME280;36113;50.742;6.432;2022-10-31T12:15:38;149280.44;;;17.52;100.00
50226;BME280;36113;50.742;6.432;2022-10-31T12:21:33;149208.72;;;17.23;100.00
50226;BME280;36113;50.742;6.432;2022-10-31T12:24:09;149230.09;;;17.32;100.00
50226;BME280;36113;50.742;6.432;2022-10-31T12:39:50;149138.22;;;16.94;100.00
50226;BME280;36113;50.742;6.432;2022-10-31T12:58:38;149086.63;;;16.73;100.00
50226;BME280;36113;50.742;6.432;2022-10-31T13:01:34;149066.47;;;16.65;100.00
50226;BME280;36113;50.742;6.432;2022-10-31T13:04:19;149018.69;;;16.45;100.00
50226;BME280;36113;50.742;6.432;2022-10-31T13:06:59;148968.38;;;16.25;100.00
50226;BME280;36113;50.742;6.432;2022-10-31T13:09:34;148938.22;;;16.12;100.00
50226;BME280;36113;50.742;6.432;2022-10-31T13:12:07;148972.16;;;16.26;100.00
50226;BME280;36113;50.742;6.432;2022-10-31T13:14:39;148959.59;;;16.21;100.00
50226;BME280;36113;50.742;6.432;2022-10-31T13:17:22;148929.38;;;16.09;100.00
50226;BME280;36113;50.742;6.432;2022-10-31T13:19:52;148968.38;;;16.25;100.00
50226;BME280;36113;50.742;6.432;2022-10-31T13:22:23;148964.63;;;16.23;100.00
50226;BME280;36113;50.742;6.432;2022-10-31T13:24:57;148993.53;;;16.35;100.00
50226;BME280;36113;50.742;6.432;2022-10-31T13:27:29;149008.59;;;16.41;100.00
50226;BME280;36113;50.742;6.432;2022-10-31T13:30:02;149012.38;;;16.43;100.00
50226;BME280;36113;50.742;6.432;2022-10-31T13:32:40;148972.16;;;16.26;100.00
50226;BME280;36113;50.742;6.432;2022-10-31T13:35:14;148998.56;;;16.37;100.00
50226;BME280;36113;50.742;6.432;2022-10-31T13:37:45;148998.56;;;16.37;100.00
50226;BME280;36113;50.742;6.432;2022-10-31T13:40:39;149006.13;;;16.40;100.00
50226;BME280;36113;50.742;6.432;2022-10-31T13:46:25;149006.13;;;16.40;100.00
50226;BME280;36113;50.742;6.432;2022-10-31T13:48:51;148989.75;;;16.34;100.00
50226;BME280;36113;50.742;6.432;2022-10-31T13:51:31;149024.97;;;16.48;100.00
50226;BME280;36113;50.742;6.432;2022-10-31T13:54:06;149031.28;;;16.50;100.00
50226;BME280;36113;50.742;6.432;2022-10-31T13:56:33;149006.13;;;16.40;100.00
50226;BME280;36113;50.742;6.432;2022-10-31T14:01:49;149033.75;;;16.52;100.00
50226;BME280;36113;50.742;6.432;2022-10-31T14:04:28;149012.38;;;16.43;100.00
50226;BME280;36113;50.742;6.432;2022-10-31T14:06:58;149038.78;;;16.54;100.00
50226;BME280;36113;50.742;6.432;2022-10-31T14:09:33;149037.53;;;16.53;100.00
50226;BME280;36113;50.742;6.432;2022-10-31T14:12:02;149036.28;;;16.53;100.00
50226;BME280;36113;50.742;6.432;2022-10-31T14:14:32;149047.63;;;16.57;100.00
50226;BME280;36113;50.742;6.432;2022-10-31T14:16:59;149035.06;;;16.52;100.00
50226;BME280;36113;50.742;6.432;2022-10-31T14:19:24;149045.09;;;16.56;100.00
50226;BME280;36113;50.742;6.432;2022-10-31T14:21:51;149031.28;;;16.50;100.00
50226;BME280;36113;50.742;6.432;2022-10-31T14:26:58;149094.16;;;16.76;100.00
50226;BME280;36113;50.742;6.432;2022-10-31T14:29:28;149055.16;;;16.60;100.00
50226;BME280;36113;50.742;6.432;2022-10-31T14:31:57;149111.78;;;16.83;100.00
50226;BME280;36113;50.742;6.432;2022-10-31T14:34:30;149128.19;;;16.90;100.00
50226;BME280;36113;50.742;6.432;2022-10-31T14:47:35;149235.13;;;17.34;100.00
50226;BME280;36113;50.742;6.432;2022-10-31T14:50:18;149232.59;;;17.33;100.00
50226;BME280;36113;50.742;6.432;2022-10-31T14:52:49;149240.16;;;17.36;100.00
50226;BME280;36113;50.742;6.432;2022-10-31T14:55:16;149240.16;;;17.36;100.00
50226;BME280;36113;50.742;6.432;2022-10-31T14:57:50;149213.72;;;17.25;100.00